sensor_id;sensor_type;location;lat;lon;timestamp;P1;durP1;ratioP1;P2;durP2;ratioP2
45208;SDS011;30951;43.994;26.260;2023-07-08T00:00:22;17.60;;;8.55;;
45208;SDS011;30951;43.994;26.260;2023-07-08T00:02:48;17.08;;;7.50;;
45208;SDS011;30951;43.994;26.260;2023-07-08T00:05:18;12.02;;;8.63;;
45208;SDS011;30951;43.994;26.260;2023-07-08T00:07:46;19.67;;;7.90;;
45208;SDS011;30951;43.994;26.260;2023-07-08T00:12:45;9.32;;;7.60;;
45208;SDS011;30951;43.994;26.260;2023-07-08T00:15:13;11.85;;;7.45;;
45208;SDS011;30951;43.994;26.260;2023-07-08T00:17:39;9.60;;;7.78;;
45208;SDS011;30951;43.994;26.260;2023-07-08T00:20:27;10.85;;;8.48;;
45208;SDS011;30951;43.994;26.260;2023-07-08T00:23:07;12.52;;;8.27;;
45208;SDS011;30951;43.994;26.260;2023-07-08T00:25:34;10.75;;;7.75;;
45208;SDS011;30951;43.994;26.260;2023-07-08T00:27:59;9.00;;;6.88;;
45208;SDS011;30951;43.994;26.260;2023-07-08T00:30:29;15.80;;;7.68;;
45208;SDS011;30951;43.994;26.260;2023-07-08T00:32:55;10.50;;;7.80;;
45208;SDS011;30951;43.994;26.260;2023-07-08T00:37:57;7.90;;;7.10;;
45208;SDS011;30951;43.994;26.260;2023-07-08T00:40:37;11.13;;;7.25;;
45208;SDS011;30951;43.994;26.260;2023-07-08T00:43:04;10.40;;;7.43;;
45208;SDS011;30951;43.994;26.260;2023-07-08T00:48:00;10.35;;;6.20;;
45208;SDS011;30951;43.994;26.260;2023-07-08T00:55:54;11.98;;;7.22;;
45208;SDS011;30951;43.994;26.260;2023-07-08T00:58:22;9.93;;;7.50;;
45208;SDS011;30951;43.994;26.260;2023-07-08T01:00:49;16.10;;;7.45;;
45208;SDS011;30951;43.994;26.260;2023-07-08T01:03:16;13.05;;;6.95;;
45208;SDS011;30951;43.994;26.260;2023-07-08T01:05:43;10.95;;;7.75;;
45208;SDS011;30951;43.994;26.260;2023-07-08T01:08:09;9.98;;;7.60;;
45208;SDS011;30951;43.994;26.260;2023-07-08T01:10:56;12.65;;;7.50;;
45208;SDS011;30951;43.994;26.260;2023-07-08T01:13:23;11.02;;;8.43;;
45208;SDS011;30951;43.994;26.260;2023-07-08T01:15:49;11.98;;;7.93;;
45208;SDS011;30951;43.994;26.260;2023-07-08T01:18:15;10.65;;;8.57;;
45208;SDS011;30951;43.994;26.260;2023-07-08T01:20:42;12.00;;;7.57;;
45208;SDS011;30951;43.994;26.260;2023-07-08T01:23:11;12.32;;;7.93;;
45208;SDS011;30951;43.994;26.260;2023-07-08T01:25:37;12.80;;;7.53;;
45208;SDS011;30951;43.994;26.260;2023-07-08T01:28:03;8.18;;;7.10;;
45208;SDS011;30951;43.994;26.260;2023-07-08T01:30:29;17.45;;;8.98;;
45208;SDS011;30951;43.994;26.260;2023-07-08T01:32:56;13.50;;;7.20;;
45208;SDS011;30951;43.994;26.260;2023-07-08T01:35:25;12.55;;;7.78;;
45208;SDS011;30951;43.994;26.260;2023-07-08T01:37:52;16.65;;;7.95;;
45208;SDS011;30951;43.994;26.260;2023-07-08T01:42:52;12.20;;;8.25;;
45208;SDS011;30951;43.994;26.260;2023-07-08T01:45:20;12.38;;;7.95;;
45208;SDS011;30951;43.994;26.260;2023-07-08T01:47:47;12.77;;;7.43;;
45208;SDS011;30951;43.994;26.260;2023-07-08T01:50:38;9.57;;;7.60;;
45208;SDS011;30951;43.994;26.260;2023-07-08T01:53:14;10.38;;;7.65;;
45208;SDS011;30951;43.994;26.260;2023-07-08T01:55:41;11.75;;;7.90;;
45208;SDS011;30951;43.994;26.260;2023-07-08T01:58:06;11.18;;;7.95;;
45208;SDS011;30951;43.994;26.260;2023-07-08T02:00:32;10.75;;;7.45;;
45208;SDS011;30951;43.994;26.260;2023-07-08T02:02:57;8.73;;;7.85;;
45208;SDS011;30951;43.994;26.260;2023-07-08T02:05:23;7.80;;;6.90;;
45208;SDS011;30951;43.994;26.260;2023-07-08T02:07:49;10.20;;;7.53;;
45208;SDS011;30951;43.994;26.260;2023-07-08T02:10:14;12.38;;;7.70;;
45208;SDS011;30951;43.994;26.260;2023-07-08T02:12:40;9.18;;;7.47;;
45208;SDS011;30951;43.994;26.260;2023-07-08T02:15:06;12.45;;;7.32;;
45208;SDS011;30951;43.994;26.260;2023-07-08T02:17:33;11.57;;;7.53;;
45208;SDS011;30951;43.994;26.260;2023-07-08T02:19:58;12.82;;;7.50;;
45208;SDS011;30951;43.994;26.260;2023-07-08T02:22:24;16.20;;;7.75;;
45208;SDS011;30951;43.994;26.260;2023-07-08T02:24:49;17.40;;;7.57;;
45208;SDS011;30951;43.994;26.260;2023-07-08T02:27:15;15.13;;;7.85;;
45208;SDS011;30951;43.994;26.260;2023-07-08T02:29:41;13.27;;;6.80;;
45208;SDS011;30951;43.994;26.260;2023-07-08T02:32:08;17.67;;;7.35;;
45208;SDS011;30951;43.994;26.260;2023-07-08T02:34:35;13.38;;;7.90;;
45208;SDS011;30951;43.994;26.260;2023-07-08T02:37:01;10.50;;;7.50;;
45208;SDS011;30951;43.994;26.260;2023-07-08T02:39:26;11.32;;;7.50;;
45208;SDS011;30951;43.994;26.260;2023-07-08T02:41:52;12.43;;;7.95;;
45208;SDS011;30951;43.994;26.260;2023-07-08T02:44:17;13.82;;;7.40;;
45208;SDS011;30951;43.994;26.260;2023-07-08T02:46:43;15.82;;;7.60;;
45208;SDS011;30951;43.994;26.260;2023-07-08T02:49:08;14.20;;;7.78;;
45208;SDS011;30951;43.994;26.260;2023-07-08T02:51:34;9.60;;;6.90;;
45208;SDS011;30951;43.994;26.260;2023-07-08T02:53:59;15.18;;;7.40;;
45208;SDS011;30951;43.994;26.260;2023-07-08T02:56:25;11.00;;;7.95;;
45208;SDS011;30951;43.994;26.260;2023-07-08T02:58:53;9.65;;;7.63;;
45208;SDS011;30951;43.994;26.260;2023-07-08T03:01:18;13.38;;;7.50;;
45208;SDS011;30951;43.994;26.260;2023-07-08T03:03:44;15.52;;;7.35;;
45208;SDS011;30951;43.994;26.260;2023-07-08T03:06:10;9.77;;;7.22;;
45208;SDS011;30951;43.994;26.260;2023-07-08T03:08:36;12.43;;;7.05;;
45208;SDS011;30951;43.994;26.260;2023-07-08T03:11:03;9.50;;;7.53;;
45208;SDS011;30951;43.994;26.260;2023-07-08T03:13:29;9.50;;;7.13;;
45208;SDS011;30951;43.994;26.260;2023-07-08T03:15:56;9.98;;;7.20;;
45208;SDS011;30951;43.994;26.260;2023-07-08T03:18:22;8.32;;;6.88;;
45208;SDS011;30951;43.994;26.260;2023-07-08T03:20:55;11.20;;;6.50;;
45208;SDS011;30951;43.994;26.260;2023-07-08T03:23:22;11.45;;;6.40;;
45208;SDS011;30951;43.994;26.260;2023-07-08T03:25:48;9.43;;;6.43;;
45208;SDS011;30951;43.994;26.260;2023-07-08T03:28:14;8.18;;;6.85;;
45208;SDS011;30951;43.994;26.260;2023-07-08T03:30:40;8.70;;;6.53;;
45208;SDS011;30951;43.994;26.260;2023-07-08T03:33:06;10.73;;;6.80;;
45208;SDS011;30951;43.994;26.260;2023-07-08T03:35:32;10.05;;;5.90;;
45208;SDS011;30951;43.994;26.260;2023-07-08T03:37:57;12.50;;;6.22;;
45208;SDS011;30951;43.994;26.260;2023-07-08T03:40:23;10.27;;;7.18;;
45208;SDS011;30951;43.994;26.260;2023-07-08T03:42:48;8.93;;;6.60;;
45208;SDS011;30951;43.994;26.260;2023-07-08T03:45:14;15.05;;;6.75;;
45208;SDS011;30951;43.994;26.260;2023-07-08T03:47:39;8.75;;;6.97;;
45208;SDS011;30951;43.994;26.260;2023-07-08T03:50:05;9.32;;;6.57;;
45208;SDS011;30951;43.994;26.260;2023-07-08T03:52:31;9.23;;;7.57;;
45208;SDS011;30951;43.994;26.260;2023-07-08T03:54:57;11.73;;;6.00;;
45208;SDS011;30951;43.994;26.260;2023-07-08T03:57:22;9.65;;;5.80;;
45208;SDS011;30951;43.994;26.260;2023-07-08T03:59:48;6.18;;;5.57;;
45208;SDS011;30951;43.994;26.260;2023-07-08T04:02:13;11.32;;;6.03;;
45208;SDS011;30951;43.994;26.260;2023-07-08T04:04:39;11.27;;;5.55;;
45208;SDS011;30951;43.994;26.260;2023-07-08T04:07:05;8.00;;;5.63;;
45208;SDS011;30951;43.994;26.260;2023-07-08T04:09:30;6.63;;;6.03;;
45208;SDS011;30951;43.994;26.260;2023-07-08T04:11:56;6.90;;;6.20;;
45208;SDS011;30951;43.994;26.260;2023-07-08T04:14:23;13.43;;;6.55;;
45208;SDS011;30951;43.994;26.260;2023-07-08T04:16:58;7.80;;;5.40;;
45208;SDS011;30951;43.994;26.260;2023-07-08T04:19:24;6.15;;;5.38;;
45208;SDS011;30951;43.994;26.260;2023-07-08T04:21:52;6.65;;;5.65;;
45208;SDS011;30951;43.994;26.260;2023-07-08T04:24:17;6.47;;;5.68;;
45208;SDS011;30951;43.994;26.260;2023-07-08T04:26:43;7.38;;;5.40;;
45208;SDS011;30951;43.994;26.260;2023-07-08T04:29:12;8.15;;;5.65;;
45208;SDS011;30951;43.994;26.260;2023-07-08T04:31:38;7.35;;;5.05;;
45208;SDS011;30951;43.994;26.260;2023-07-08T04:34:04;8.90;;;5.28;;
45208;SDS011;30951;43.994;26.260;2023-07-08T04:36:31;10.85;;;5.40;;
45208;SDS011;30951;43.994;26.260;2023-07-08T04:38:57;5.53;;;5.00;;
45208;SDS011;30951;43.994;26.260;2023-07-08T04:41:23;7.50;;;4.72;;
45208;SDS011;30951;43.994;26.260;2023-07-08T04:43:51;5.30;;;4.80;;
45208;SDS011;30951;43.994;26.260;2023-07-08T04:47:18;9.75;;;4.38;;
45208;SDS011;30951;43.994;26.260;2023-07-08T04:49:22;5.28;;;4.78;;
45208;SDS011;30951;43.994;26.260;2023-07-08T04:51:48;4.68;;;4.25;;
45208;SDS011;30951;43.994;26.260;2023-07-08T04:54:14;8.75;;;4.40;;
45208;SDS011;30951;43.994;26.260;2023-07-08T04:56:41;6.05;;;4.63;;
45208;SDS011;30951;43.994;26.260;2023-07-08T04:59:09;8.95;;;5.22;;
45208;SDS011;30951;43.994;26.260;2023-07-08T05:01:41;7.82;;;5.43;;
45208;SDS011;30951;43.994;26.260;2023-07-08T05:04:08;6.75;;;5.32;;
45208;SDS011;30951;43.994;26.260;2023-07-08T05:06:34;8.10;;;5.63;;
45208;SDS011;30951;43.994;26.260;2023-07-08T05:09:00;5.28;;;4.72;;
45208;SDS011;30951;43.994;26.260;2023-07-08T05:11:27;6.15;;;4.72;;
45208;SDS011;30951;43.994;26.260;2023-07-08T05:13:53;9.88;;;5.53;;
45208;SDS011;30951;43.994;26.260;2023-07-08T05:16:19;7.05;;;5.05;;
45208;SDS011;30951;43.994;26.260;2023-07-08T05:18:45;5.72;;;4.72;;
45208;SDS011;30951;43.994;26.260;2023-07-08T05:21:11;6.80;;;5.32;;
45208;SDS011;30951;43.994;26.260;2023-07-08T05:23:37;8.93;;;5.75;;
45208;SDS011;30951;43.994;26.260;2023-07-08T05:26:03;5.63;;;5.00;;
45208;SDS011;30951;43.994;26.260;2023-07-08T05:28:29;5.38;;;4.45;;
45208;SDS011;30951;43.994;26.260;2023-07-08T05:30:55;8.02;;;5.05;;
45208;SDS011;30951;43.994;26.260;2023-07-08T05:33:21;9.45;;;5.30;;
45208;SDS011;30951;43.994;26.260;2023-07-08T05:35:51;6.88;;;5.22;;
45208;SDS011;30951;43.994;26.260;2023-07-08T05:38:17;6.80;;;5.22;;
45208;SDS011;30951;43.994;26.260;2023-07-08T05:40:43;11.68;;;5.03;;
45208;SDS011;30951;43.994;26.260;2023-07-08T05:43:08;11.13;;;5.10;;
45208;SDS011;30951;43.994;26.260;2023-07-08T05:45:34;8.02;;;4.97;;
45208;SDS011;30951;43.994;26.260;2023-07-08T05:48:01;6.57;;;4.93;;
45208;SDS011;30951;43.994;26.260;2023-07-08T05:50:27;7.30;;;5.40;;
45208;SDS011;30951;43.994;26.260;2023-07-08T05:52:52;9.15;;;5.95;;
45208;SDS011;30951;43.994;26.260;2023-07-08T05:55:18;19.50;;;6.90;;
45208;SDS011;30951;43.994;26.260;2023-07-08T05:57:43;9.02;;;5.60;;
45208;SDS011;30951;43.994;26.260;2023-07-08T06:00:09;6.25;;;5.35;;
45208;SDS011;30951;43.994;26.260;2023-07-08T06:02:36;5.45;;;4.95;;
45208;SDS011;30951;43.994;26.260;2023-07-08T06:05:02;10.90;;;4.57;;
45208;SDS011;30951;43.994;26.260;2023-07-08T06:07:27;8.68;;;5.07;;
45208;SDS011;30951;43.994;26.260;2023-07-08T06:09:53;4.10;;;3.67;;
45208;SDS011;30951;43.994;26.260;2023-07-08T06:12:21;3.58;;;2.90;;
45208;SDS011;30951;43.994;26.260;2023-07-08T06:14:46;2.42;;;2.05;;
45208;SDS011;30951;43.994;26.260;2023-07-08T06:17:12;2.40;;;2.20;;
45208;SDS011;30951;43.994;26.260;2023-07-08T06:19:37;4.18;;;2.08;;
45208;SDS011;30951;43.994;26.260;2023-07-08T06:22:03;6.43;;;2.40;;
45208;SDS011;30951;43.994;26.260;2023-07-08T06:24:29;3.20;;;2.28;;
45208;SDS011;30951;43.994;26.260;2023-07-08T06:26:54;4.90;;;2.20;;
45208;SDS011;30951;43.994;26.260;2023-07-08T06:29:20;2.70;;;2.10;;
45208;SDS011;30951;43.994;26.260;2023-07-08T06:31:45;2.95;;;2.03;;
45208;SDS011;30951;43.994;26.260;2023-07-08T06:34:11;3.50;;;2.13;;
45208;SDS011;30951;43.994;26.260;2023-07-08T06:36:36;3.92;;;2.38;;
45208;SDS011;30951;43.994;26.260;2023-07-08T06:39:02;2.35;;;2.15;;
45208;SDS011;30951;43.994;26.260;2023-07-08T06:41:28;3.75;;;2.47;;
45208;SDS011;30951;43.994;26.260;2023-07-08T06:43:53;3.60;;;2.75;;
45208;SDS011;30951;43.994;26.260;2023-07-08T06:46:19;4.75;;;2.60;;
45208;SDS011;30951;43.994;26.260;2023-07-08T06:48:44;3.25;;;2.03;;
45208;SDS011;30951;43.994;26.260;2023-07-08T06:51:10;3.47;;;2.35;;
45208;SDS011;30951;43.994;26.260;2023-07-08T06:53:35;3.30;;;1.90;;
45208;SDS011;30951;43.994;26.260;2023-07-08T06:56:01;2.63;;;2.25;;
45208;SDS011;30951;43.994;26.260;2023-07-08T06:58:27;4.03;;;2.30;;
45208;SDS011;30951;43.994;26.260;2023-07-08T07:00:53;2.25;;;1.90;;
45208;SDS011;30951;43.994;26.260;2023-07-08T07:03:18;5.57;;;2.13;;
45208;SDS011;30951;43.994;26.260;2023-07-08T07:05:44;2.33;;;2.10;;
45208;SDS011;30951;43.994;26.260;2023-07-08T07:08:09;5.25;;;2.20;;
45208;SDS011;30951;43.994;26.260;2023-07-08T07:10:35;2.75;;;1.90;;
45208;SDS011;30951;43.994;26.260;2023-07-08T07:13:00;5.57;;;2.20;;
45208;SDS011;30951;43.994;26.260;2023-07-08T07:15:26;2.58;;;2.38;;
45208;SDS011;30951;43.994;26.260;2023-07-08T07:17:52;2.65;;;2.45;;
45208;SDS011;30951;43.994;26.260;2023-07-08T07:20:18;2.88;;;2.50;;
45208;SDS011;30951;43.994;26.260;2023-07-08T07:22:43;2.25;;;2.10;;
45208;SDS011;30951;43.994;26.260;2023-07-08T07:25:09;2.35;;;2.00;;
45208;SDS011;30951;43.994;26.260;2023-07-08T07:27:35;3.20;;;2.00;;
45208;SDS011;30951;43.994;26.260;2023-07-08T07:30:00;6.03;;;2.78;;
45208;SDS011;30951;43.994;26.260;2023-07-08T07:32:26;3.38;;;2.50;;
45208;SDS011;30951;43.994;26.260;2023-07-08T07:34:52;6.95;;;2.72;;
45208;SDS011;30951;43.994;26.260;2023-07-08T07:37:19;3.80;;;2.58;;
45208;SDS011;30951;43.994;26.260;2023-07-08T07:39:45;4.35;;;2.80;;
45208;SDS011;30951;43.994;26.260;2023-07-08T07:42:12;3.28;;;2.58;;
45208;SDS011;30951;43.994;26.260;2023-07-08T07:44:39;5.20;;;2.60;;
45208;SDS011;30951;43.994;26.260;2023-07-08T07:47:05;2.95;;;2.30;;
45208;SDS011;30951;43.994;26.260;2023-07-08T07:49:31;2.95;;;2.47;;
45208;SDS011;30951;43.994;26.260;2023-07-08T07:51:57;6.00;;;2.53;;
45208;SDS011;30951;43.994;26.260;2023-07-08T07:54:22;2.42;;;1.90;;
45208;SDS011;30951;43.994;26.260;2023-07-08T07:56:48;2.00;;;1.90;;
45208;SDS011;30951;43.994;26.260;2023-07-08T07:59:13;2.35;;;1.60;;
45208;SDS011;30951;43.994;26.260;2023-07-08T08:01:39;2.22;;;2.10;;
45208;SDS011;30951;43.994;26.260;2023-07-08T08:04:06;3.80;;;2.08;;
45208;SDS011;30951;43.994;26.260;2023-07-08T08:06:31;2.22;;;2.00;;
45208;SDS011;30951;43.994;26.260;2023-07-08T08:08:57;5.47;;;1.70;;
45208;SDS011;30951;43.994;26.260;2023-07-08T08:11:22;2.28;;;1.92;;
45208;SDS011;30951;43.994;26.260;2023-07-08T08:13:50;2.10;;;1.88;;
45208;SDS011;30951;43.994;26.260;2023-07-08T08:16:16;2.90;;;2.25;;
45208;SDS011;30951;43.994;26.260;2023-07-08T08:18:42;4.15;;;1.55;;
45208;SDS011;30951;43.994;26.260;2023-07-08T08:21:08;1.98;;;1.88;;
45208;SDS011;30951;43.994;26.260;2023-07-08T08:23:33;1.98;;;1.73;;
45208;SDS011;30951;43.994;26.260;2023-07-08T08:25:59;1.58;;;1.48;;
45208;SDS011;30951;43.994;26.260;2023-07-08T08:28:24;2.78;;;1.90;;
45208;SDS011;30951;43.994;26.260;2023-07-08T08:30:50;2.50;;;1.65;;
45208;SDS011;30951;43.994;26.260;2023-07-08T08:33:15;4.22;;;1.60;;
45208;SDS011;30951;43.994;26.260;2023-07-08T08:35:42;2.22;;;1.83;;
45208;SDS011;30951;43.994;26.260;2023-07-08T08:38:07;3.25;;;1.95;;
45208;SDS011;30951;43.994;26.260;2023-07-08T08:40:33;2.92;;;1.73;;
45208;SDS011;30951;43.994;26.260;2023-07-08T08:43:03;1.67;;;1.58;;
45208;SDS011;30951;43.994;26.260;2023-07-08T08:45:34;1.92;;;1.30;;
45208;SDS011;30951;43.994;26.260;2023-07-08T08:48:05;2.88;;;1.50;;
45208;SDS011;30951;43.994;26.260;2023-07-08T08:50:35;1.23;;;1.13;;
45208;SDS011;30951;43.994;26.260;2023-07-08T08:53:05;1.88;;;1.60;;
45208;SDS011;30951;43.994;26.260;2023-07-08T08:55:33;1.70;;;1.60;;
45208;SDS011;30951;43.994;26.260;2023-07-08T09:01:15;1.70;;;1.30;;
45208;SDS011;30951;43.994;26.260;2023-07-08T09:08:40;1.92;;;1.58;;
45208;SDS011;30951;43.994;26.260;2023-07-08T09:11:13;1.52;;;1.23;;
45208;SDS011;30951;43.994;26.260;2023-07-08T09:13:44;1.60;;;1.30;;
45208;SDS011;30951;43.994;26.260;2023-07-08T09:16:18;2.55;;;1.45;;
45208;SDS011;30951;43.994;26.260;2023-07-08T09:21:25;2.17;;;1.75;;
45208;SDS011;30951;43.994;26.260;2023-07-08T09:23:54;2.70;;;1.60;;
45208;SDS011;30951;43.994;26.260;2023-07-08T09:26:25;2.58;;;1.38;;
45208;SDS011;30951;43.994;26.260;2023-07-08T09:28:52;2.08;;;1.40;;
45208;SDS011;30951;43.994;26.260;2023-07-08T09:31:26;1.55;;;1.40;;
45208;SDS011;30951;43.994;26.260;2023-07-08T09:34:16;1.70;;;1.55;;
45208;SDS011;30951;43.994;26.260;2023-07-08T09:36:44;2.07;;;1.53;;
45208;SDS011;30951;43.994;26.260;2023-07-08T09:39:13;1.33;;;1.23;;
45208;SDS011;30951;43.994;26.260;2023-07-08T09:41:40;3.40;;;2.13;;
45208;SDS011;30951;43.994;26.260;2023-07-08T09:46:56;2.38;;;2.13;;
45208;SDS011;30951;43.994;26.260;2023-07-08T09:49:34;2.17;;;1.80;;
45208;SDS011;30951;43.994;26.260;2023-07-08T09:52:00;5.85;;;3.75;;
45208;SDS011;30951;43.994;26.260;2023-07-08T09:54:27;1.60;;;1.50;;
45208;SDS011;30951;43.994;26.260;2023-07-08T09:59:31;19.35;;;10.60;;
45208;SDS011;30951;43.994;26.260;2023-07-08T10:02:00;12.02;;;6.63;;
45208;SDS011;30951;43.994;26.260;2023-07-08T10:04:44;16.15;;;9.40;;
45208;SDS011;30951;43.994;26.260;2023-07-08T10:07:10;3.25;;;2.38;;
45208;SDS011;30951;43.994;26.260;2023-07-08T10:09:41;1.90;;;1.75;;
45208;SDS011;30951;43.994;26.260;2023-07-08T10:12:06;2.25;;;2.05;;
45208;SDS011;30951;43.994;26.260;2023-07-08T10:14:37;2.50;;;2.00;;
45208;SDS011;30951;43.994;26.260;2023-07-08T10:17:07;3.47;;;2.15;;
45208;SDS011;30951;43.994;26.260;2023-07-08T10:19:36;1.88;;;1.65;;
45208;SDS011;30951;43.994;26.260;2023-07-08T10:22:09;2.35;;;1.83;;
45208;SDS011;30951;43.994;26.260;2023-07-08T10:28:21;1.83;;;1.63;;
45208;SDS011;30951;43.994;26.260;2023-07-08T10:36:56;2.95;;;1.92;;
45208;SDS011;30951;43.994;26.260;2023-07-08T10:53:02;2.08;;;1.58;;
45208;SDS011;30951;43.994;26.260;2023-07-08T10:58:36;3.40;;;1.83;;
45208;SDS011;30951;43.994;26.260;2023-07-08T11:08:44;2.20;;;2.00;;
45208;SDS011;30951;43.994;26.260;2023-07-08T11:13:48;2.95;;;2.35;;
45208;SDS011;30951;43.994;26.260;2023-07-08T11:16:41;7.00;;;2.92;;
45208;SDS011;30951;43.994;26.260;2023-07-08T11:19:19;6.45;;;3.67;;
45208;SDS011;30951;43.994;26.260;2023-07-08T11:21:49;3.88;;;2.70;;
45208;SDS011;30951;43.994;26.260;2023-07-08T11:29:44;2.92;;;2.67;;
45208;SDS011;30951;43.994;26.260;2023-07-08T11:32:13;4.40;;;3.17;;
45208;SDS011;30951;43.994;26.260;2023-07-08T11:34:41;5.43;;;3.28;;
45208;SDS011;30951;43.994;26.260;2023-07-08T11:37:08;6.97;;;3.95;;
45208;SDS011;30951;43.994;26.260;2023-07-08T11:42:15;2.85;;;2.25;;
45208;SDS011;30951;43.994;26.260;2023-07-08T11:44:58;2.13;;;1.92;;
45208;SDS011;30951;43.994;26.260;2023-07-08T11:47:26;3.40;;;2.25;;
45208;SDS011;30951;43.994;26.260;2023-07-08T11:50:06;3.22;;;2.17;;
45208;SDS011;30951;43.994;26.260;2023-07-08T11:53:03;6.78;;;2.45;;
45208;SDS011;30951;43.994;26.260;2023-07-08T11:55:55;4.57;;;2.38;;
45208;SDS011;30951;43.994;26.260;2023-07-08T11:58:26;8.07;;;2.28;;
45208;SDS011;30951;43.994;26.260;2023-07-08T12:03:54;9.52;;;2.30;;
45208;SDS011;30951;43.994;26.260;2023-07-08T12:06:42;3.95;;;1.83;;
45208;SDS011;30951;43.994;26.260;2023-07-08T12:11:47;2.95;;;1.88;;
45208;SDS011;30951;43.994;26.260;2023-07-08T12:14:13;2.80;;;2.17;;
45208;SDS011;30951;43.994;26.260;2023-07-08T12:16:39;2.10;;;1.85;;
45208;SDS011;30951;43.994;26.260;2023-07-08T12:19:09;2.78;;;2.15;;
45208;SDS011;30951;43.994;26.260;2023-07-08T12:21:38;3.97;;;2.60;;
45208;SDS011;30951;43.994;26.260;2023-07-08T12:24:06;2.95;;;1.80;;
45208;SDS011;30951;43.994;26.260;2023-07-08T12:26:33;3.90;;;2.22;;
45208;SDS011;30951;43.994;26.260;2023-07-08T12:28:58;5.70;;;2.83;;
45208;SDS011;30951;43.994;26.260;2023-07-08T12:31:24;2.92;;;2.22;;
45208;SDS011;30951;43.994;26.260;2023-07-08T12:33:50;3.15;;;2.53;;
45208;SDS011;30951;43.994;26.260;2023-07-08T12:36:20;3.80;;;1.80;;
45208;SDS011;30951;43.994;26.260;2023-07-08T12:38:48;1.92;;;1.80;;
45208;SDS011;30951;43.994;26.260;2023-07-08T12:43:44;8.55;;;5.82;;
45208;SDS011;30951;43.994;26.260;2023-07-08T12:46:10;6.20;;;2.97;;
45208;SDS011;30951;43.994;26.260;2023-07-08T12:48:37;2.55;;;1.90;;
45208;SDS011;30951;43.994;26.260;2023-07-08T12:51:03;2.50;;;2.30;;
45208;SDS011;30951;43.994;26.260;2023-07-08T12:53:30;2.80;;;1.88;;
45208;SDS011;30951;43.994;26.260;2023-07-08T12:55:58;1.70;;;1.60;;
45208;SDS011;30951;43.994;26.260;2023-07-08T12:58:25;2.28;;;2.08;;
45208;SDS011;30951;43.994;26.260;2023-07-08T13:00:53;4.53;;;2.10;;
45208;SDS011;30951;43.994;26.260;2023-07-08T13:03:20;6.32;;;2.55;;
45208;SDS011;30951;43.994;26.260;2023-07-08T13:05:49;1.98;;;1.85;;
45208;SDS011;30951;43.994;26.260;2023-07-08T13:08:15;2.10;;;1.90;;
45208;SDS011;30951;43.994;26.260;2023-07-08T13:10:42;2.30;;;2.00;;
45208;SDS011;30951;43.994;26.260;2023-07-08T13:13:11;2.90;;;2.20;;
45208;SDS011;30951;43.994;26.260;2023-07-08T13:15:41;4.53;;;2.53;;
45208;SDS011;30951;43.994;26.260;2023-07-08T13:18:17;3.22;;;2.25;;
45208;SDS011;30951;43.994;26.260;2023-07-08T13:20:47;2.13;;;1.90;;
45208;SDS011;30951;43.994;26.260;2023-07-08T13:23:17;2.40;;;2.20;;
45208;SDS011;30951;43.994;26.260;2023-07-08T13:25:44;2.40;;;2.08;;
45208;SDS011;30951;43.994;26.260;2023-07-08T13:28:17;3.63;;;1.92;;
45208;SDS011;30951;43.994;26.260;2023-07-08T13:30:58;2.45;;;1.85;;
45208;SDS011;30951;43.994;26.260;2023-07-08T13:33:29;2.72;;;2.22;;
45208;SDS011;30951;43.994;26.260;2023-07-08T13:36:00;3.20;;;1.90;;
45208;SDS011;30951;43.994;26.260;2023-07-08T13:38:30;2.33;;;2.00;;
45208;SDS011;30951;43.994;26.260;2023-07-08T13:43:25;3.17;;;2.17;;
45208;SDS011;30951;43.994;26.260;2023-07-08T13:45:53;1.98;;;1.77;;
45208;SDS011;30951;43.994;26.260;2023-07-08T13:50:57;4.30;;;2.20;;
45208;SDS011;30951;43.994;26.260;2023-07-08T13:53:40;2.90;;;1.63;;
45208;SDS011;30951;43.994;26.260;2023-07-08T13:56:32;2.80;;;1.77;;
45208;SDS011;30951;43.994;26.260;2023-07-08T13:59:07;4.85;;;2.33;;
45208;SDS011;30951;43.994;26.260;2023-07-08T14:01:37;7.45;;;2.40;;
45208;SDS011;30951;43.994;26.260;2023-07-08T14:04:03;3.28;;;1.85;;
45208;SDS011;30951;43.994;26.260;2023-07-08T14:06:31;4.07;;;2.38;;
45208;SDS011;30951;43.994;26.260;2023-07-08T14:09:07;5.68;;;2.38;;
45208;SDS011;30951;43.994;26.260;2023-07-08T14:11:39;2.63;;;2.00;;
45208;SDS011;30951;43.994;26.260;2023-07-08T14:14:05;7.43;;;2.25;;
45208;SDS011;30951;43.994;26.260;2023-07-08T14:16:31;3.88;;;2.10;;
45208;SDS011;30951;43.994;26.260;2023-07-08T14:19:00;5.13;;;2.30;;
45208;SDS011;30951;43.994;26.260;2023-07-08T14:21:29;2.38;;;2.17;;
45208;SDS011;30951;43.994;26.260;2023-07-08T14:23:55;5.15;;;2.22;;
45208;SDS011;30951;43.994;26.260;2023-07-08T14:26:20;4.88;;;2.10;;
45208;SDS011;30951;43.994;26.260;2023-07-08T14:28:46;5.82;;;2.40;;
45208;SDS011;30951;43.994;26.260;2023-07-08T14:31:12;2.92;;;2.33;;
45208;SDS011;30951;43.994;26.260;2023-07-08T14:33:45;2.50;;;1.95;;
45208;SDS011;30951;43.994;26.260;2023-07-08T14:36:11;3.67;;;2.45;;
45208;SDS011;30951;43.994;26.260;2023-07-08T14:38:37;3.20;;;2.20;;
45208;SDS011;30951;43.994;26.260;2023-07-08T14:41:03;2.83;;;2.40;;
45208;SDS011;30951;43.994;26.260;2023-07-08T14:43:29;3.10;;;2.08;;
45208;SDS011;30951;43.994;26.260;2023-07-08T14:45:58;4.80;;;2.08;;
45208;SDS011;30951;43.994;26.260;2023-07-08T14:48:27;3.65;;;2.00;;
45208;SDS011;30951;43.994;26.260;2023-07-08T14:50:53;4.28;;;2.25;;
45208;SDS011;30951;43.994;26.260;2023-07-08T14:53:19;2.25;;;2.03;;
45208;SDS011;30951;43.994;26.260;2023-07-08T14:55:45;2.97;;;2.15;;
45208;SDS011;30951;43.994;26.260;2023-07-08T14:58:17;4.03;;;2.45;;
45208;SDS011;30951;43.994;26.260;2023-07-08T15:00:55;3.47;;;2.25;;
45208;SDS011;30951;43.994;26.260;2023-07-08T15:03:22;2.45;;;2.22;;
45208;SDS011;30951;43.994;26.260;2023-07-08T15:05:48;6.65;;;2.30;;
45208;SDS011;30951;43.994;26.260;2023-07-08T15:08:13;2.45;;;2.22;;
45208;SDS011;30951;43.994;26.260;2023-07-08T15:10:39;2.60;;;1.98;;
45208;SDS011;30951;43.994;26.260;2023-07-08T15:13:09;3.00;;;2.10;;
45208;SDS011;30951;43.994;26.260;2023-07-08T15:15:34;2.38;;;2.13;;
45208;SDS011;30951;43.994;26.260;2023-07-08T15:18:01;2.28;;;1.90;;
45208;SDS011;30951;43.994;26.260;2023-07-08T15:20:31;3.17;;;2.10;;
45208;SDS011;30951;43.994;26.260;2023-07-08T15:22:57;3.17;;;1.95;;
45208;SDS011;30951;43.994;26.260;2023-07-08T15:25:23;5.22;;;2.05;;
45208;SDS011;30951;43.994;26.260;2023-07-08T15:27:50;2.38;;;1.90;;
45208;SDS011;30951;43.994;26.260;2023-07-08T15:30:18;3.92;;;2.10;;
45208;SDS011;30951;43.994;26.260;2023-07-08T15:32:44;4.13;;;2.38;;
45208;SDS011;30951;43.994;26.260;2023-07-08T15:35:14;6.90;;;2.30;;
45208;SDS011;30951;43.994;26.260;2023-07-08T15:37:42;5.60;;;2.05;;
45208;SDS011;30951;43.994;26.260;2023-07-08T15:40:08;2.25;;;2.05;;
45208;SDS011;30951;43.994;26.260;2023-07-08T15:42:37;2.88;;;1.95;;
45208;SDS011;30951;43.994;26.260;2023-07-08T15:47:37;5.10;;;2.78;;
45208;SDS011;30951;43.994;26.260;2023-07-08T15:50:07;1.95;;;1.75;;
45208;SDS011;30951;43.994;26.260;2023-07-08T15:52:35;2.38;;;1.88;;
45208;SDS011;30951;43.994;26.260;2023-07-08T15:55:00;3.58;;;2.38;;
45208;SDS011;30951;43.994;26.260;2023-07-08T15:57:26;7.90;;;2.28;;
45208;SDS011;30951;43.994;26.260;2023-07-08T15:59:51;3.97;;;2.13;;
45208;SDS011;30951;43.994;26.260;2023-07-08T16:02:22;3.17;;;2.13;;
45208;SDS011;30951;43.994;26.260;2023-07-08T16:04:51;8.98;;;2.10;;
45208;SDS011;30951;43.994;26.260;2023-07-08T16:07:16;2.55;;;2.15;;